sensor_id;sensor_type;location;lat;lon;timestamp;pressure;altitude;pressure_sealevel;temperature;humidity
16793;BME280;8513;42.662;23.350;2023-05-08T00:00:47;95082.44;;;17.25;42.90
16793;BME280;8513;42.662;23.350;2023-05-08T00:03:12;95081.16;;;17.21;42.59
16793;BME280;8513;42.662;23.350;2023-05-08T00:05:40;95080.34;;;17.20;42.86
16793;BME280;8513;42.662;23.350;2023-05-08T00:08:06;95082.56;;;17.17;42.83
16793;BME280;8513;42.662;23.350;2023-05-08T00:10:31;95083.94;;;17.13;43.17
16793;BME280;8513;42.662;23.350;2023-05-08T00:12:57;95075.13;;;17.06;43.34
16793;BME280;8513;42.662;23.350;2023-05-08T00:15:22;95072.00;;;17.02;43.51
16793;BME280;8513;42.662;23.350;2023-05-08T00:17:48;95084.28;;;17.03;43.49
16793;BME280;8513;42.662;23.350;2023-05-08T00:20:13;95085.22;;;16.95;43.65
16793;BME280;8513;42.662;23.350;2023-05-08T00:22:39;95085.53;;;16.86;43.88
16793;BME280;8513;42.662;23.350;2023-05-08T00:25:05;95089.97;;;16.79;44.23
16793;BME280;8513;42.662;23.350;2023-05-08T00:27:31;95082.28;;;16.69;44.28
16793;BME280;8513;42.662;23.350;2023-05-08T00:29:57;95083.91;;;16.70;44.04
16793;BME280;8513;42.662;23.350;2023-05-08T00:32:23;95088.88;;;16.58;44.44
16793;BME280;8513;42.662;23.350;2023-05-08T00:34:49;95094.00;;;16.60;44.14
16793;BME280;8513;42.662;23.350;2023-05-08T00:37:14;95098.75;;;16.64;44.15
16793;BME280;8513;42.662;23.350;2023-05-08T00:39:40;95091.97;;;16.62;44.23
16793;BME280;8513;42.662;23.350;2023-05-08T00:42:05;95088.69;;;16.60;44.73
16793;BME280;8513;42.662;23.350;2023-05-08T00:44:31;95084.78;;;16.56;44.66
16793;BME280;8513;42.662;23.350;2023-05-08T00:46:57;95090.19;;;16.47;44.98
16793;BME280;8513;42.662;23.350;2023-05-08T00:49:22;95085.09;;;16.31;45.56
16793;BME280;8513;42.662;23.350;2023-05-08T00:51:51;95089.38;;;16.32;45.88
16793;BME280;8513;42.662;23.350;2023-05-08T00:54:19;95085.28;;;16.29;45.48
16793;BME280;8513;42.662;23.350;2023-05-08T00:56:44;95089.59;;;16.30;45.38
16793;BME280;8513;42.662;23.350;2023-05-08T00:59:12;95098.09;;;16.26;45.67
16793;BME280;8513;42.662;23.350;2023-05-08T01:01:39;95097.28;;;16.25;46.20
16793;BME280;8513;42.662;23.350;2023-05-08T01:04:05;95098.06;;;15.66;48.58
16793;BME280;8513;42.662;23.350;2023-05-08T01:06:31;95097.44;;;15.79;48.63
16793;BME280;8513;42.662;23.350;2023-05-08T01:08:59;95104.63;;;15.94;48.50
16793;BME280;8513;42.662;23.350;2023-05-08T01:11:46;95096.09;;;15.98;48.73
16793;BME280;8513;42.662;23.350;2023-05-08T01:20:14;95102.31;;;15.91;49.47
16793;BME280;8513;42.662;23.350;2023-05-08T01:22:55;95114.00;;;15.81;49.81
16793;BME280;8513;42.662;23.350;2023-05-08T01:31:23;95104.53;;;15.49;51.35
16793;BME280;8513;42.662;23.350;2023-05-08T01:42:25;95102.81;;;15.56;51.23
16793;BME280;8513;42.662;23.350;2023-05-08T01:44:58;95097.31;;;15.58;51.20
16793;BME280;8513;42.662;23.350;2023-05-08T01:47:27;95094.72;;;15.50;51.41
16793;BME280;8513;42.662;23.350;2023-05-08T01:52:38;95084.81;;;15.29;52.04
16793;BME280;8513;42.662;23.350;2023-05-08T01:55:09;95084.13;;;15.35;51.78
16793;BME280;8513;42.662;23.350;2023-05-08T01:57:39;95080.81;;;15.33;51.62
16793;BME280;8513;42.662;23.350;2023-05-08T02:00:06;95092.88;;;15.35;51.67
16793;BME280;8513;42.662;23.350;2023-05-08T02:02:33;95094.16;;;15.39;51.22
16793;BME280;8513;42.662;23.350;2023-05-08T02:05:02;95097.09;;;15.07;52.42
16793;BME280;8513;42.662;23.350;2023-05-08T02:07:29;95098.09;;;14.51;54.13
16793;BME280;8513;42.662;23.350;2023-05-08T02:09:55;95095.84;;;14.71;53.75
16793;BME280;8513;42.662;23.350;2023-05-08T02:12:22;95089.94;;;14.92;53.43
16793;BME280;8513;42.662;23.350;2023-05-08T02:14:51;95092.06;;;14.97;53.57
16793;BME280;8513;42.662;23.350;2023-05-08T02:17:17;95093.78;;;15.05;52.96
16793;BME280;8513;42.662;23.350;2023-05-08T02:19:44;95095.78;;;14.80;53.67
16793;BME280;8513;42.662;23.350;2023-05-08T02:22:12;95097.16;;;14.75;53.58
16793;BME280;8513;42.662;23.350;2023-05-08T02:24:38;95096.13;;;14.53;54.38
16793;BME280;8513;42.662;23.350;2023-05-08T02:27:05;95094.47;;;14.84;53.97
16793;BME280;8513;42.662;23.350;2023-05-08T02:29:32;95094.22;;;14.93;53.83
16793;BME280;8513;42.662;23.350;2023-05-08T02:31:59;95095.88;;;14.94;53.96
16793;BME280;8513;42.662;23.350;2023-05-08T02:34:27;95096.34;;;14.98;53.48
16793;BME280;8513;42.662;23.350;2023-05-08T02:36:53;95090.69;;;15.01;53.40
16793;BME280;8513;42.662;23.350;2023-05-08T02:39:21;95104.75;;;15.02;53.63
16793;BME280;8513;42.662;23.350;2023-05-08T02:41:49;95092.50;;;14.77;53.77
16793;BME280;8513;42.662;23.350;2023-05-08T02:44:15;95101.66;;;14.67;54.07
16793;BME280;8513;42.662;23.350;2023-05-08T02:49:31;95099.56;;;14.85;54.07
16793;BME280;8513;42.662;23.350;2023-05-08T02:52:13;95103.69;;;14.88;53.74
16793;BME280;8513;42.662;23.350;2023-05-08T02:54:42;95103.56;;;14.81;54.05
16793;BME280;8513;42.662;23.350;2023-05-08T02:57:21;95114.22;;;14.73;54.79
16793;BME280;8513;42.662;23.350;2023-05-08T02:59:56;95105.78;;;14.69;54.78
16793;BME280;8513;42.662;23.350;2023-05-08T03:02:43;95110.16;;;14.54;54.98
16793;BME280;8513;42.662;23.350;2023-05-08T03:05:16;95114.78;;;14.60;54.77
16793;BME280;8513;42.662;23.350;2023-05-08T03:07:44;95100.31;;;14.71;54.29
16793;BME280;8513;42.662;23.350;2023-05-08T03:10:14;95108.28;;;14.71;54.45
16793;BME280;8513;42.662;23.350;2023-05-08T03:12:52;95104.00;;;14.62;54.42
16793;BME280;8513;42.662;23.350;2023-05-08T03:15:34;95103.31;;;14.68;54.02
16793;BME280;8513;42.662;23.350;2023-05-08T03:18:06;95107.38;;;14.47;54.55
16793;BME280;8513;42.662;23.350;2023-05-08T03:20:36;95121.25;;;14.49;54.64
16793;BME280;8513;42.662;23.350;2023-05-08T03:23:04;95116.94;;;14.56;54.48
16793;BME280;8513;42.662;23.350;2023-05-08T03:25:33;95121.59;;;14.54;54.29
16793;BME280;8513;42.662;23.350;2023-05-08T03:28:00;95128.47;;;14.64;54.19
16793;BME280;8513;42.662;23.350;2023-05-08T03:30:30;95116.72;;;14.66;54.30
16793;BME280;8513;42.662;23.350;2023-05-08T03:32:57;95119.63;;;14.40;55.00
16793;BME280;8513;42.662;23.350;2023-05-08T03:35:24;95122.38;;;14.16;55.44
16793;BME280;8513;42.662;23.350;2023-05-08T03:37:52;95120.19;;;14.36;54.95
16793;BME280;8513;42.662;23.350;2023-05-08T03:40:18;95123.25;;;14.47;55.09
16793;BME280;8513;42.662;23.350;2023-05-08T03:42:44;95122.28;;;14.40;55.22
16793;BME280;8513;42.662;23.350;2023-05-08T03:45:12;95114.81;;;14.52;54.62
16793;BME280;8513;42.662;23.350;2023-05-08T03:47:39;95112.50;;;14.57;54.87
16793;BME280;8513;42.662;23.350;2023-05-08T03:50:05;95121.00;;;14.36;55.76
16793;BME280;8513;42.662;23.350;2023-05-08T03:52:33;95122.84;;;14.27;55.25
16793;BME280;8513;42.662;23.350;2023-05-08T03:54:58;95116.59;;;14.20;54.97
16793;BME280;8513;42.662;23.350;2023-05-08T03:57:29;95121.53;;;14.23;55.32
16793;BME280;8513;42.662;23.350;2023-05-08T04:00:02;95123.75;;;14.43;54.42
16793;BME280;8513;42.662;23.350;2023-05-08T04:05:34;95133.31;;;14.60;53.66
16793;BME280;8513;42.662;23.350;2023-05-08T04:08:26;95130.78;;;14.67;53.41
16793;BME280;8513;42.662;23.350;2023-05-08T04:13:48;95137.41;;;14.23;53.21
16793;BME280;8513;42.662;23.350;2023-05-08T04:16:26;95135.59;;;14.16;54.05
16793;BME280;8513;42.662;23.350;2023-05-08T04:19:01;95130.25;;;14.32;53.16
16793;BME280;8513;42.662;23.350;2023-05-08T04:21:28;95141.47;;;14.42;52.31
16793;BME280;8513;42.662;23.350;2023-05-08T04:23:55;95137.91;;;14.19;52.85
16793;BME280;8513;42.662;23.350;2023-05-08T04:26:21;95137.28;;;14.17;53.19
16793;BME280;8513;42.662;23.350;2023-05-08T04:28:47;95146.28;;;13.83;53.83
16793;BME280;8513;42.662;23.350;2023-05-08T04:31:15;95148.59;;;13.78;54.36
16793;BME280;8513;42.662;23.350;2023-05-08T04:33:44;95154.03;;;13.76;54.26
16793;BME280;8513;42.662;23.350;2023-05-08T04:36:11;95150.91;;;13.81;53.89
16793;BME280;8513;42.662;23.350;2023-05-08T04:38:38;95149.38;;;13.95;53.15
16793;BME280;8513;42.662;23.350;2023-05-08T04:41:04;95144.28;;;13.93;53.53
16793;BME280;8513;42.662;23.350;2023-05-08T04:43:29;95141.25;;;14.12;53.13
16793;BME280;8513;42.662;23.350;2023-05-08T04:45:55;95140.94;;;14.55;52.15
16793;BME280;8513;42.662;23.350;2023-05-08T04:48:20;95132.31;;;14.13;53.46
16793;BME280;8513;42.662;23.350;2023-05-08T04:50:46;95132.31;;;14.13;53.23
16793;BME280;8513;42.662;23.350;2023-05-08T04:53:11;95133.44;;;14.27;52.87
16793;BME280;8513;42.662;23.350;2023-05-08T04:55:37;95135.66;;;14.55;52.20
16793;BME280;8513;42.662;23.350;2023-05-08T04:58:02;95130.78;;;14.27;52.68
16793;BME280;8513;42.662;23.350;2023-05-08T05:00:27;95123.91;;;14.49;52.19
16793;BME280;8513;42.662;23.350;2023-05-08T05:02:53;95122.97;;;14.73;51.59
16793;BME280;8513;42.662;23.350;2023-05-08T05:05:18;95125.78;;;14.72;51.24
16793;BME280;8513;42.662;23.350;2023-05-08T05:07:44;95120.59;;;14.87;51.54
16793;BME280;8513;42.662;23.350;2023-05-08T05:10:09;95137.16;;;15.04;50.67
16793;BME280;8513;42.662;23.350;2023-05-08T05:12:36;95122.69;;;14.91;50.99
16793;BME280;8513;42.662;23.350;2023-05-08T05:15:02;95120.63;;;15.02;50.56
16793;BME280;8513;42.662;23.350;2023-05-08T05:17:29;95121.94;;;15.06;50.18
16793;BME280;8513;42.662;23.350;2023-05-08T05:19:55;95126.50;;;15.12;49.92
16793;BME280;8513;42.662;23.350;2023-05-08T05:22:21;95113.47;;;15.10;50.13
16793;BME280;8513;42.662;23.350;2023-05-08T05:24:47;95121.34;;;15.18;50.07
16793;BME280;8513;42.662;23.350;2023-05-08T05:27:12;95107.31;;;15.10;50.07
16793;BME280;8513;42.662;23.350;2023-05-08T05:29:38;95116.44;;;15.30;49.28
16793;BME280;8513;42.662;23.350;2023-05-08T05:32:03;95118.72;;;15.33;49.59
16793;BME280;8513;42.662;23.350;2023-05-08T05:34:31;95118.94;;;15.32;49.59
16793;BME280;8513;42.662;23.350;2023-05-08T05:36:56;95120.56;;;15.33;49.63
16793;BME280;8513;42.662;23.350;2023-05-08T05:39:22;95115.78;;;15.51;49.36
16793;BME280;8513;42.662;23.350;2023-05-08T05:41:47;95116.00;;;15.41;49.67
16793;BME280;8513;42.662;23.350;2023-05-08T05:44:13;95116.06;;;15.56;49.45
16793;BME280;8513;42.662;23.350;2023-05-08T05:46:38;95113.44;;;15.71;49.21
16793;BME280;8513;42.662;23.350;2023-05-08T05:49:03;95114.00;;;15.81;49.02
16793;BME280;8513;42.662;23.350;2023-05-08T05:51:29;95112.72;;;15.92;48.72
16793;BME280;8513;42.662;23.350;2023-05-08T05:53:54;95115.28;;;16.00;48.05
16793;BME280;8513;42.662;23.350;2023-05-08T05:56:21;95114.03;;;15.96;48.16
16793;BME280;8513;42.662;23.350;2023-05-08T05:58:47;95114.47;;;16.00;47.67
16793;BME280;8513;42.662;23.350;2023-05-08T06:01:13;95107.72;;;16.12;47.56
16793;BME280;8513;42.662;23.350;2023-05-08T06:03:39;95098.38;;;16.16;47.05
16793;BME280;8513;42.662;23.350;2023-05-08T06:06:04;95098.00;;;16.19;47.28
16793;BME280;8513;42.662;23.350;2023-05-08T06:08:30;95098.91;;;16.12;47.61
16793;BME280;8513;42.662;23.350;2023-05-08T06:10:55;95098.41;;;16.01;47.74
16793;BME280;8513;42.662;23.350;2023-05-08T06:13:21;95093.06;;;16.16;47.70
16793;BME280;8513;42.662;23.350;2023-05-08T06:15:46;95098.91;;;16.26;47.44
16793;BME280;8513;42.662;23.350;2023-05-08T06:18:15;95101.75;;;16.25;47.93
16793;BME280;8513;42.662;23.350;2023-05-08T06:20:41;95098.72;;;16.43;47.19
16793;BME280;8513;42.662;23.350;2023-05-08T06:23:06;95084.78;;;16.56;46.82
16793;BME280;8513;42.662;23.350;2023-05-08T06:25:32;95094.72;;;16.68;46.35
16793;BME280;8513;42.662;23.350;2023-05-08T06:27:57;95093.88;;;16.83;46.26
16793;BME280;8513;42.662;23.350;2023-05-08T06:30:22;95091.06;;;16.69;46.35
16793;BME280;8513;42.662;23.350;2023-05-08T06:32:48;95093.88;;;16.83;46.15
16793;BME280;8513;42.662;23.350;2023-05-08T06:35:13;95092.38;;;16.95;46.52
16793;BME280;8513;42.662;23.350;2023-05-08T06:37:44;95100.75;;;17.13;46.00
16793;BME280;8513;42.662;23.350;2023-05-08T06:40:10;95105.66;;;16.95;46.46
16793;BME280;8513;42.662;23.350;2023-05-08T06:42:36;95109.97;;;17.17;46.15
16793;BME280;8513;42.662;23.350;2023-05-08T06:45:02;95098.03;;;16.92;46.83
16793;BME280;8513;42.662;23.350;2023-05-08T06:47:28;95106.53;;;17.24;46.22
16793;BME280;8513;42.662;23.350;2023-05-08T06:49:53;95099.00;;;16.84;46.44
16793;BME280;8513;42.662;23.350;2023-05-08T06:52:19;95102.63;;;16.98;46.24
16793;BME280;8513;42.662;23.350;2023-05-08T06:54:45;95105.53;;;17.25;46.01
16793;BME280;8513;42.662;23.350;2023-05-08T06:57:10;95103.13;;;17.30;45.41
16793;BME280;8513;42.662;23.350;2023-05-08T06:59:39;95094.63;;;17.41;45.21
16793;BME280;8513;42.662;23.350;2023-05-08T07:02:04;95101.50;;;17.57;45.08
16793;BME280;8513;42.662;23.350;2023-05-08T07:04:30;95104.59;;;17.60;43.98
16793;BME280;8513;42.662;23.350;2023-05-08T07:06:55;95102.16;;;17.59;43.66
16793;BME280;8513;42.662;23.350;2023-05-08T07:09:21;95099.50;;;16.94;45.30
16793;BME280;8513;42.662;23.350;2023-05-08T07:11:46;95097.94;;;16.79;46.12
16793;BME280;8513;42.662;23.350;2023-05-08T07:14:12;95102.00;;;16.96;45.66
16793;BME280;8513;42.662;23.350;2023-05-08T07:16:38;95106.34;;;17.04;46.38
16793;BME280;8513;42.662;23.350;2023-05-08T07:19:03;95113.75;;;17.30;46.24
16793;BME280;8513;42.662;23.350;2023-05-08T07:21:29;95102.72;;;17.54;46.23
16793;BME280;8513;42.662;23.350;2023-05-08T07:23:55;95107.63;;;17.79;44.76
16793;BME280;8513;42.662;23.350;2023-05-08T07:26:20;95103.75;;;17.81;45.52
16793;BME280;8513;42.662;23.350;2023-05-08T07:28:47;95105.47;;;17.96;45.80
16793;BME280;8513;42.662;23.350;2023-05-08T07:31:13;95105.31;;;18.04;45.26
16793;BME280;8513;42.662;23.350;2023-05-08T07:33:38;95097.88;;;17.86;45.35
16793;BME280;8513;42.662;23.350;2023-05-08T07:36:04;95100.22;;;18.02;44.74
16793;BME280;8513;42.662;23.350;2023-05-08T07:38:29;95110.13;;;18.15;44.64
16793;BME280;8513;42.662;23.350;2023-05-08T07:40:55;95103.47;;;18.39;44.07
16793;BME280;8513;42.662;23.350;2023-05-08T07:43:24;95108.25;;;18.57;43.54
16793;BME280;8513;42.662;23.350;2023-05-08T07:45:50;95108.56;;;18.34;43.53
16793;BME280;8513;42.662;23.350;2023-05-08T07:48:16;95102.47;;;18.47;42.70
16793;BME280;8513;42.662;23.350;2023-05-08T07:50:41;95104.13;;;18.55;43.25
16793;BME280;8513;42.662;23.350;2023-05-08T07:53:07;95101.69;;;18.60;43.30
16793;BME280;8513;42.662;23.350;2023-05-08T07:55:32;95106.63;;;18.56;44.17
16793;BME280;8513;42.662;23.350;2023-05-08T07:57:58;95110.84;;;18.44;43.38
16793;BME280;8513;42.662;23.350;2023-05-08T08:00:24;95107.34;;;18.37;43.38
16793;BME280;8513;42.662;23.350;2023-05-08T08:02:52;95118.09;;;18.57;43.21
16793;BME280;8513;42.662;23.350;2023-05-08T08:05:17;95110.94;;;18.64;42.75
16793;BME280;8513;42.662;23.350;2023-05-08T08:07:43;95110.97;;;18.70;42.26
16793;BME280;8513;42.662;23.350;2023-05-08T08:10:08;95112.09;;;18.96;41.86
16793;BME280;8513;42.662;23.350;2023-05-08T08:12:34;95110.28;;;19.03;41.66
16793;BME280;8513;42.662;23.350;2023-05-08T08:14:59;95104.09;;;19.03;41.10
16793;BME280;8513;42.662;23.350;2023-05-08T08:17:25;95110.47;;;19.02;41.73
16793;BME280;8513;42.662;23.350;2023-05-08T08:19:50;95110.94;;;19.25;41.15
16793;BME280;8513;42.662;23.350;2023-05-08T08:22:16;95108.69;;;19.22;40.99
16793;BME280;8513;42.662;23.350;2023-05-08T08:24:41;95113.38;;;19.40;41.02
16793;BME280;8513;42.662;23.350;2023-05-08T08:27:06;95116.72;;;19.62;40.64
16793;BME280;8513;42.662;23.350;2023-05-08T08:29:32;95117.53;;;19.69;40.46
16793;BME280;8513;42.662;23.350;2023-05-08T08:31:58;95106.06;;;19.75;39.96
16793;BME280;8513;42.662;23.350;2023-05-08T08:34:24;95107.28;;;19.86;40.25
16793;BME280;8513;42.662;23.350;2023-05-08T08:36:50;95107.47;;;19.98;40.18
16793;BME280;8513;42.662;23.350;2023-05-08T08:39:15;95092.47;;;20.03;40.71
16793;BME280;8513;42.662;23.350;2023-05-08T08:41:41;95092.47;;;20.03;40.93
16793;BME280;8513;42.662;23.350;2023-05-08T08:44:06;95083.38;;;20.24;40.49
16793;BME280;8513;42.662;23.350;2023-05-08T08:46:32;95077.38;;;20.36;40.00
16793;BME280;8513;42.662;23.350;2023-05-08T08:49:02;95082.72;;;20.42;41.22
16793;BME280;8513;42.662;23.350;2023-05-08T08:51:32;95081.09;;;20.35;41.09
16793;BME280;8513;42.662;23.350;2023-05-08T08:54:03;95078.69;;;20.13;41.83
16793;BME280;8513;42.662;23.350;2023-05-08T08:56:30;95069.03;;;20.19;42.13
16793;BME280;8513;42.662;23.350;2023-05-08T08:58:57;95074.97;;;20.21;41.74
16793;BME280;8513;42.662;23.350;2023-05-08T09:01:24;95069.59;;;20.34;41.83
16793;BME280;8513;42.662;23.350;2023-05-08T09:03:55;95061.34;;;20.42;42.20
16793;BME280;8513;42.662;23.350;2023-05-08T09:06:21;95061.47;;;20.61;41.93
16793;BME280;8513;42.662;23.350;2023-05-08T09:08:46;95059.53;;;20.23;42.44
16793;BME280;8513;42.662;23.350;2023-05-08T09:11:12;95063.84;;;20.31;42.36
16793;BME280;8513;42.662;23.350;2023-05-08T09:13:38;95055.38;;;19.75;42.88
16793;BME280;8513;42.662;23.350;2023-05-08T09:16:03;95043.81;;;19.88;42.78
16793;BME280;8513;42.662;23.350;2023-05-08T09:18:29;95042.78;;;20.02;42.34
16793;BME280;8513;42.662;23.350;2023-05-08T09:20:55;95042.16;;;20.00;42.71
16793;BME280;8513;42.662;23.350;2023-05-08T09:23:21;95043.34;;;20.18;41.89
16793;BME280;8513;42.662;23.350;2023-05-08T09:25:47;95034.16;;;20.00;42.61
16793;BME280;8513;42.662;23.350;2023-05-08T09:28:23;95022.00;;;20.11;42.95
16793;BME280;8513;42.662;23.350;2023-05-08T09:30:53;95019.56;;;20.03;43.77
16793;BME280;8513;42.662;23.350;2023-05-08T09:33:20;95020.72;;;20.27;43.54
16793;BME280;8513;42.662;23.350;2023-05-08T09:35:46;95023.78;;;20.31;42.43
16793;BME280;8513;42.662;23.350;2023-05-08T09:38:34;95025.81;;;20.35;43.16
16793;BME280;8513;42.662;23.350;2023-05-08T09:43:32;95026.09;;;20.65;41.50
16793;BME280;8513;42.662;23.350;2023-05-08T09:46:18;95032.97;;;20.41;41.92
16793;BME280;8513;42.662;23.350;2023-05-08T09:48:48;95038.91;;;20.57;42.10
16793;BME280;8513;42.662;23.350;2023-05-08T09:51:13;95033.56;;;20.57;42.30
16793;BME280;8513;42.662;23.350;2023-05-08T09:53:39;95050.88;;;20.86;41.96
16793;BME280;8513;42.662;23.350;2023-05-08T09:56:04;95045.00;;;20.70;42.63
16793;BME280;8513;42.662;23.350;2023-05-08T09:58:41;95046.47;;;20.98;42.25
16793;BME280;8513;42.662;23.350;2023-05-08T10:01:07;95047.75;;;21.21;41.63
16793;BME280;8513;42.662;23.350;2023-05-08T10:03:51;95046.53;;;21.48;40.92
16793;BME280;8513;42.662;23.350;2023-05-08T10:06:16;95037.78;;;21.59;40.85
16793;BME280;8513;42.662;23.350;2023-05-08T10:08:42;95034.47;;;21.64;40.36
16793;BME280;8513;42.662;23.350;2023-05-08T10:11:14;95042.97;;;21.79;40.34
16793;BME280;8513;42.662;23.350;2023-05-08T10:13:42;95040.06;;;21.81;40.16
16793;BME280;8513;42.662;23.350;2023-05-08T10:16:13;95039.66;;;21.84;39.85
16793;BME280;8513;42.662;23.350;2023-05-08T10:18:45;95029.94;;;21.65;40.26
16793;BME280;8513;42.662;23.350;2023-05-08T10:21:13;95027.03;;;21.66;40.23
16793;BME280;8513;42.662;23.350;2023-05-08T10:23:40;95029.34;;;21.81;39.59
16793;BME280;8513;42.662;23.350;2023-05-08T10:26:11;95021.25;;;21.69;40.24
16793;BME280;8513;42.662;23.350;2023-05-08T10:31:39;95015.09;;;21.87;39.99
16793;BME280;8513;42.662;23.350;2023-05-08T10:34:15;95014.16;;;22.00;39.93
16793;BME280;8513;42.662;23.350;2023-05-08T10:36:43;95001.94;;;21.86;39.83
16793;BME280;8513;42.662;23.350;2023-05-08T10:39:10;95009.06;;;21.92;39.80
16793;BME280;8513;42.662;23.350;2023-05-08T10:41:36;95012.41;;;21.69;39.88
16793;BME280;8513;42.662;23.350;2023-05-08T10:44:02;95003.94;;;21.90;40.79
16793;BME280;8513;42.662;23.350;2023-05-08T10:46:43;95011.28;;;21.58;41.84
16793;BME280;8513;42.662;23.350;2023-05-08T10:52:20;94998.09;;;21.56;40.95
16793;BME280;8513;42.662;23.350;2023-05-08T10:57:29;94990.78;;;21.89;40.93
16793;BME280;8513;42.662;23.350;2023-05-08T10:59:55;94988.34;;;22.06;40.83
16793;BME280;8513;42.662;23.350;2023-05-08T11:02:28;94991.59;;;22.26;40.34
16793;BME280;8513;42.662;23.350;2023-05-08T11:04:55;94995.66;;;21.55;41.28
16793;BME280;8513;42.662;23.350;2023-05-08T11:07:57;94975.97;;;21.68;41.58
16793;BME280;8513;42.662;23.350;2023-05-08T11:10:31;94972.72;;;21.66;41.10
16793;BME280;8513;42.662;23.350;2023-05-08T11:12:57;94977.00;;;21.23;42.13
16793;BME280;8513;42.662;23.350;2023-05-08T11:15:36;94962.88;;;21.59;41.05
16793;BME280;8513;42.662;23.350;2023-05-08T11:18:14;94955.81;;;21.84;41.27
16793;BME280;8513;42.662;23.350;2023-05-08T11:20:41;94963.69;;;22.34;40.23
16793;BME280;8513;42.662;23.350;2023-05-08T11:23:22;94965.22;;;22.30;39.62
16793;BME280;8513;42.662;23.350;2023-05-08T11:25:58;94951.88;;;22.23;39.02
16793;BME280;8513;42.662;23.350;2023-05-08T11:28:24;94952.31;;;22.38;39.41
16793;BME280;8513;42.662;23.350;2023-05-08T11:30:53;94944.00;;;22.58;38.77
16793;BME280;8513;42.662;23.350;2023-05-08T11:33:19;94939.50;;;22.71;39.25
16793;BME280;8513;42.662;23.350;2023-05-08T11:40:46;94931.66;;;23.46;37.34
16793;BME280;8513;42.662;23.350;2023-05-08T11:43:44;94923.41;;;23.71;36.88
16793;BME280;8513;42.662;23.350;2023-05-08T11:46:16;94918.38;;;23.75;36.11
16793;BME280;8513;42.662;23.350;2023-05-08T11:48:43;94919.06;;;23.82;35.72
16793;BME280;8513;42.662;23.350;2023-05-08T11:51:09;94910.97;;;23.94;34.84
16793;BME280;8513;42.662;23.350;2023-05-08T11:53:36;94906.50;;;24.11;35.39
16793;BME280;8513;42.662;23.350;2023-05-08T11:56:02;94904.94;;;24.15;35.13
16793;BME280;8513;42.662;23.350;2023-05-08T11:58:28;94895.84;;;24.16;34.04
16793;BME280;8513;42.662;23.350;2023-05-08T12:00:54;94894.44;;;24.42;34.28
16793;BME280;8513;42.662;23.350;2023-05-08T12:03:21;94892.75;;;24.82;33.62
16793;BME280;8513;42.662;23.350;2023-05-08T12:05:48;94892.09;;;25.08;33.19
16793;BME280;8513;42.662;23.350;2023-05-08T12:08:16;94889.63;;;25.41;31.00
16793;BME280;8513;42.662;23.350;2023-05-08T12:13:20;94887.28;;;24.94;31.48
16793;BME280;8513;42.662;23.350;2023-05-08T12:15:47;94888.34;;;24.76;32.03
16793;BME280;8513;42.662;23.350;2023-05-08T12:18:13;94886.19;;;24.78;32.26
16793;BME280;8513;42.662;23.350;2023-05-08T12:20:39;94884.22;;;24.56;31.93
16793;BME280;8513;42.662;23.350;2023-05-08T12:23:04;94887.56;;;24.35;33.11
16793;BME280;8513;42.662;23.350;2023-05-08T12:25:30;94883.94;;;24.12;33.23
16793;BME280;8513;42.662;23.350;2023-05-08T12:27:55;94885.19;;;23.93;33.84
16793;BME280;8513;42.662;23.350;2023-05-08T12:30:21;94882.66;;;23.51;34.28
16793;BME280;8513;42.662;23.350;2023-05-08T12:32:47;94881.63;;;23.40;35.01
16793;BME280;8513;42.662;23.350;2023-05-08T12:35:13;94871.25;;;23.32;35.07
16793;BME280;8513;42.662;23.350;2023-05-08T12:37:40;94871.72;;;23.17;35.54
16793;BME280;8513;42.662;23.350;2023-05-08T12:40:06;94863.22;;;23.20;35.04
16793;BME280;8513;42.662;23.350;2023-05-08T12:42:48;94867.88;;;23.13;35.26
16793;BME280;8513;42.662;23.350;2023-05-08T12:45:20;94876.22;;;23.52;34.27
16793;BME280;8513;42.662;23.350;2023-05-08T12:47:51;94873.69;;;23.97;33.99
16793;BME280;8513;42.662;23.350;2023-05-08T12:50:18;94873.69;;;23.97;33.61
16793;BME280;8513;42.662;23.350;2023-05-08T12:52:48;94856.69;;;24.20;32.88
16793;BME280;8513;42.662;23.350;2023-05-08T12:55:20;94874.78;;;23.96;33.76
16793;BME280;8513;42.662;23.350;2023-05-08T12:57:45;94862.19;;;23.85;33.59
16793;BME280;8513;42.662;23.350;2023-05-08T13:00:14;94856.75;;;23.68;34.27
16793;BME280;8513;42.662;23.350;2023-05-08T13:02:50;94859.75;;;23.60;34.62
16793;BME280;8513;42.662;23.350;2023-05-08T13:05:22;94861.69;;;23.48;34.23
16793;BME280;8513;42.662;23.350;2023-05-08T13:07:51;94861.31;;;23.56;34.24
16793;BME280;8513;42.662;23.350;2023-05-08T13:10:17;94862.44;;;23.60;34.06
16793;BME280;8513;42.662;23.350;2023-05-08T13:12:46;94864.25;;;23.95;35.54
16793;BME280;8513;42.662;23.350;2023-05-08T13:15:12;94869.56;;;23.90;36.09
16793;BME280;8513;42.662;23.350;2023-05-08T13:17:37;94887.31;;;23.67;37.14
16793;BME280;8513;42.662;23.350;2023-05-08T13:20:03;94878.47;;;23.20;38.38
16793;BME280;8513;42.662;23.350;2023-05-08T13:22:29;94877.88;;;22.94;39.17
16793;BME280;8513;42.662;23.350;2023-05-08T13:24:54;94889.97;;;22.73;40.08
16793;BME280;8513;42.662;23.350;2023-05-08T13:27:20;94892.31;;;22.70;40.68
16793;BME280;8513;42.662;23.350;2023-05-08T13:29:46;94895.66;;;22.65;40.27
16793;BME280;8513;42.662;23.350;2023-05-08T13:32:11;94899.56;;;22.51;40.63
16793;BME280;8513;42.662;23.350;2023-05-08T13:34:36;94895.88;;;22.52;40.12
16793;BME280;8513;42.662;23.350;2023-05-08T13:37:02;94903.19;;;21.96;40.92
16793;BME280;8513;42.662;23.350;2023-05-08T13:39:28;94898.94;;;21.88;41.54
16793;BME280;8513;42.662;23.350;2023-05-08T13:41:56;94901.56;;;21.58;42.56
16793;BME280;8513;42.662;23.350;2023-05-08T13:44:21;94915.63;;;21.53;42.72
16793;BME280;8513;42.662;23.350;2023-05-08T13:46:47;94925.00;;;21.63;46.49
16793;BME280;8513;42.662;23.350;2023-05-08T13:49:12;94920.38;;;21.70;52.57
16793;BME280;8513;42.662;23.350;2023-05-08T13:51:38;94926.63;;;21.64;48.31
16793;BME280;8513;42.662;23.350;2023-05-08T13:54:03;94928.53;;;21.38;53.48